createdAt,value
2022-08-23T00:00:55.358Z,1.70
2022-08-23T00:03:51.592Z,2.10
2022-08-23T00:06:46.526Z,2.35
2022-08-23T00:09:40.181Z,1.75
2022-08-23T00:12:33.102Z,2.00
2022-08-23T00:15:26.264Z,1.80
2022-08-23T00:18:20.846Z,1.70
2022-08-23T00:21:15.289Z,2.10
2022-08-23T00:24:12.141Z,2.55
2022-08-23T00:27:08.257Z,2.15
2022-08-23T00:30:01.910Z,2.33
2022-08-23T00:32:57.889Z,1.90
2022-08-23T00:35:51.809Z,2.40
2022-08-23T00:38:46.340Z,2.00
2022-08-23T00:41:40.296Z,2.40
2022-08-23T00:44:52.951Z,1.90
2022-08-23T00:47:46.736Z,2.20
2022-08-23T00:50:47.747Z,2.30
2022-08-23T00:53:44.246Z,2.00
2022-08-23T00:56:39.102Z,2.20
2022-08-23T00:59:32.562Z,2.00
2022-08-23T01:02:26.704Z,1.95
2022-08-23T01:05:24.370Z,2.15
2022-08-23T01:08:17.917Z,1.93
2022-08-23T01:11:14.411Z,2.20
2022-08-23T01:14:15.018Z,1.90
2022-08-23T01:17:12.438Z,2.30
2022-08-23T01:20:10.613Z,2.33
2022-08-23T01:23:10.638Z,1.90
2022-08-23T01:26:06.586Z,2.17
2022-08-23T01:29:00.599Z,2.20
2022-08-23T01:31:54.601Z,1.83
2022-08-23T01:34:51.692Z,2.30
2022-08-23T01:37:45.640Z,1.90
2022-08-23T01:40:40.751Z,1.73
2022-08-23T01:43:35.474Z,2.15
2022-08-23T01:46:29.340Z,2.28
2022-08-23T01:49:23.125Z,1.80
2022-08-23T01:52:17.480Z,1.98
2022-08-23T01:55:11.398Z,2.10
2022-08-23T01:58:06.864Z,1.85
2022-08-23T02:01:01.948Z,1.85
2022-08-23T02:03:57.285Z,2.30
2022-08-23T02:06:58.328Z,2.13
2022-08-23T02:09:51.343Z,2.08
2022-08-23T02:12:44.267Z,2.10
2022-08-23T02:15:39.853Z,1.77
2022-08-23T02:18:34.890Z,2.05
2022-08-23T02:21:29.559Z,2.10
2022-08-23T02:24:26.455Z,2.13
2022-08-23T02:27:20.142Z,1.77
2022-08-23T02:30:13.919Z,2.00
2022-08-23T02:33:07.249Z,1.90
2022-08-23T02:36:01.433Z,2.15
2022-08-23T02:38:56.265Z,2.05
2022-08-23T02:41:49.752Z,2.20
2022-08-23T02:44:43.048Z,1.50
2022-08-23T02:47:36.631Z,1.85
2022-08-23T02:50:30.556Z,1.95
2022-08-23T02:53:25.024Z,2.00
2022-08-23T02:56:21.675Z,1.70
2022-08-23T02:59:14.739Z,1.80
2022-08-23T03:02:08.524Z,1.90
2022-08-23T03:05:02.347Z,1.70
2022-08-23T03:07:55.565Z,1.88
2022-08-23T03:10:52.195Z,2.08
2022-08-23T03:13:45.768Z,1.73
2022-08-23T03:16:38.837Z,1.95
2022-08-23T03:19:32.285Z,2.17
2022-08-23T03:22:25.122Z,1.80
2022-08-23T03:25:18.356Z,1.80
2022-08-23T03:28:12.200Z,1.70
2022-08-23T03:31:05.915Z,1.70
2022-08-23T03:33:59.132Z,1.88
2022-08-23T03:36:52.350Z,1.77
2022-08-23T03:39:47.907Z,1.85
2022-08-23T03:42:41.353Z,1.88
2022-08-23T03:45:35.876Z,1.58
2022-08-23T03:48:29.522Z,1.80
2022-08-23T03:51:24.304Z,1.83
2022-08-23T03:54:17.372Z,2.17
2022-08-23T03:57:10.716Z,2.20
2022-08-23T04:00:05.607Z,1.55
2022-08-23T04:03:00.852Z,2.00
2022-08-23T04:05:54.507Z,2.03
2022-08-23T04:08:49.542Z,2.00
2022-08-23T04:11:43.992Z,2.30
2022-08-23T04:14:37.061Z,2.17
2022-08-23T04:17:32.523Z,1.77
2022-08-23T04:20:27.389Z,2.00
2022-08-23T04:23:21.825Z,1.65
2022-08-23T04:26:15.232Z,1.83
2022-08-23T04:29:09.715Z,2.28
2022-08-23T04:32:07.686Z,1.70
2022-08-23T04:35:03.173Z,1.88
2022-08-23T04:37:57.618Z,2.13
2022-08-23T04:41:11.308Z,1.85
2022-08-23T04:44:05.521Z,1.90
2022-08-23T04:46:59.495Z,1.83
2022-08-23T04:49:53.382Z,2.10
2022-08-23T04:52:46.306Z,1.73
2022-08-23T04:55:40.580Z,1.88
2022-08-23T04:58:38.529Z,2.10
2022-08-23T05:01:32.204Z,1.98
2022-08-23T05:04:30.958Z,2.00
2022-08-23T05:07:30.997Z,1.83
2022-08-23T05:10:35.153Z,2.38
2022-08-23T05:13:30.254Z,2.00
2022-08-23T05:16:27.607Z,1.85
2022-08-23T05:19:21.351Z,1.83
2022-08-23T05:22:14.451Z,1.90
2022-08-23T05:25:07.914Z,2.15
2022-08-23T05:28:01.354Z,2.10
2022-08-23T05:31:00.725Z,2.00
2022-08-23T05:33:55.499Z,1.35
2022-08-23T05:36:55.728Z,2.45
2022-08-23T05:39:49.651Z,1.83
2022-08-23T05:42:43.199Z,1.98
2022-08-23T05:45:36.170Z,2.38
2022-08-23T05:48:33.959Z,2.30
2022-08-23T05:51:30.235Z,2.05
2022-08-23T05:54:23.051Z,1.98
2022-08-23T05:57:16.274Z,1.70
2022-08-23T06:00:13.315Z,1.92
2022-08-23T06:03:06.474Z,2.25
2022-08-23T06:06:01.498Z,2.15
2022-08-23T06:08:54.648Z,1.92
2022-08-23T06:11:49.219Z,2.50
2022-08-23T06:14:42.300Z,1.90
2022-08-23T06:17:35.291Z,2.45
2022-08-23T06:20:28.249Z,1.95
2022-08-23T06:23:22.957Z,2.45
2022-08-23T06:26:18.277Z,2.25
2022-08-23T06:29:13.787Z,2.17
2022-08-23T06:32:08.214Z,2.40
2022-08-23T06:35:33.315Z,2.60
2022-08-23T06:38:14.149Z,2.40
2022-08-23T06:41:10.361Z,2.40
2022-08-23T06:44:04.448Z,2.25
2022-08-23T06:46:58.431Z,1.92
2022-08-23T06:49:58.114Z,2.10
2022-08-23T06:52:53.806Z,2.42
2022-08-23T06:55:47.294Z,2.20
2022-08-23T06:58:41.787Z,2.30
2022-08-23T07:01:47.145Z,2.30
2022-08-23T07:04:41.335Z,2.50
2022-08-23T07:07:41.157Z,2.13
2022-08-23T07:10:37.121Z,2.30
2022-08-23T07:13:30.303Z,2.38
2022-08-23T07:16:25.656Z,2.15
2022-08-23T07:19:21.891Z,1.92
2022-08-23T07:22:24.589Z,2.45
2022-08-23T07:25:18.240Z,2.10
2022-08-23T07:28:12.138Z,2.10
2022-08-23T07:31:14.890Z,2.00
2022-08-23T07:34:10.405Z,1.83
2022-08-23T07:37:04.425Z,1.75
2022-08-23T07:40:07.273Z,2.40
2022-08-23T07:43:00.404Z,2.25
2022-08-23T07:45:54.188Z,2.15
2022-08-23T07:48:55.174Z,2.55
2022-08-23T07:51:52.218Z,2.40
2022-08-23T07:54:48.335Z,1.88
2022-08-23T07:57:42.440Z,2.22
2022-08-23T08:00:35.529Z,1.85
2022-08-23T08:03:28.500Z,2.20
2022-08-23T08:06:24.344Z,2.30
2022-08-23T08:09:20.172Z,2.33
2022-08-23T08:12:13.226Z,2.15
2022-08-23T08:15:07.198Z,2.28
2022-08-23T08:18:01.019Z,2.65
2022-08-23T08:20:54.218Z,2.38
2022-08-23T08:23:48.050Z,2.50
2022-08-23T08:26:43.738Z,2.20
2022-08-23T08:29:37.517Z,2.00
2022-08-23T08:32:30.543Z,2.00
2022-08-23T08:35:24.260Z,2.30
2022-08-23T08:38:17.220Z,2.17
2022-08-23T08:41:19.076Z,2.42
2022-08-23T08:44:26.573Z,2.20
2022-08-23T08:47:28.340Z,2.40
2022-08-23T08:50:26.416Z,2.15
2022-08-23T08:53:26.824Z,2.40
2022-08-23T08:56:25.030Z,2.13
2022-08-23T08:59:29.976Z,2.10
2022-08-23T09:02:33.212Z,2.58
2022-08-23T09:05:31.823Z,2.58
2022-08-23T09:08:40.158Z,2.58
2022-08-23T09:11:47.716Z,2.28
2022-08-23T09:15:03.791Z,2.22
2022-08-23T09:17:59.887Z,2.67
2022-08-23T09:20:57.924Z,2.35
2022-08-23T09:24:00.432Z,2.22
2022-08-23T09:26:54.790Z,2.08
2022-08-23T09:29:58.236Z,2.13
2022-08-23T09:32:52.183Z,2.28
2022-08-23T09:35:45.523Z,2.30
2022-08-23T09:38:53.705Z,2.45
2022-08-23T09:41:48.286Z,1.83
2022-08-23T09:44:43.544Z,2.13
2022-08-23T09:47:44.743Z,2.30
2022-08-23T09:50:42.228Z,2.67
2022-08-23T09:53:41.100Z,2.17
2022-08-23T09:56:38.469Z,2.38
2022-08-23T09:59:41.214Z,2.35
2022-08-23T10:02:36.034Z,2.53
2022-08-23T10:05:38.822Z,1.83
2022-08-23T10:08:37.450Z,2.25
2022-08-23T10:11:40.700Z,2.10
2022-08-23T10:14:33.996Z,2.35
2022-08-23T10:17:35.325Z,2.70
2022-08-23T10:20:39.639Z,2.25
2022-08-23T10:23:44.812Z,2.47
2022-08-23T10:26:44.716Z,2.28
2022-08-23T10:29:40.928Z,2.35
2022-08-23T10:32:48.520Z,2.75
2022-08-23T10:35:47.889Z,2.38
2022-08-23T10:38:46.819Z,2.10
2022-08-23T10:41:52.060Z,2.40
2022-08-23T10:44:53.231Z,2.05
2022-08-23T10:48:08.748Z,2.38
2022-08-23T10:51:08.520Z,2.17
2022-08-23T10:54:07.535Z,2.50
2022-08-23T10:57:00.658Z,2.45
2022-08-23T10:59:54.216Z,2.97
2022-08-23T11:02:54.130Z,2.40
2022-08-23T11:06:30.365Z,2.40
2022-08-23T11:09:55.694Z,2.35
2022-08-23T11:12:55.437Z,1.95
2022-08-23T11:15:58.274Z,2.40
2022-08-23T11:18:51.946Z,2.65
2022-08-23T11:21:49.459Z,2.38
2022-08-23T11:24:58.688Z,2.42
2022-08-23T11:27:51.898Z,2.38
2022-08-23T11:30:50.404Z,2.40
2022-08-23T11:33:46.890Z,2.70
2022-08-23T11:36:40.505Z,2.15
2022-08-23T11:40:16.086Z,2.65
2022-08-23T11:43:20.844Z,2.33
2022-08-23T11:46:35.090Z,2.58
2022-08-23T11:50:06.603Z,2.30
2022-08-23T11:53:24.050Z,2.75
2022-08-23T11:56:34.614Z,2.25
2022-08-23T11:59:56.062Z,2.55
2022-08-23T12:03:00.345Z,2.47
2022-08-23T12:06:35.277Z,2.70
2022-08-23T12:09:54.448Z,2.80
2022-08-23T12:13:30.174Z,2.25
2022-08-23T12:16:34.583Z,2.67
2022-08-23T12:19:39.527Z,2.83
2022-08-23T12:22:57.586Z,2.88
2022-08-23T12:26:10.984Z,2.10
2022-08-23T12:29:13.447Z,2.67
2022-08-23T12:32:17.166Z,2.45
2022-08-23T12:35:28.091Z,2.83
2022-08-23T12:38:40.158Z,2.38
2022-08-23T12:41:50.767Z,3.00
2022-08-23T12:44:46.915Z,2.60
2022-08-23T12:47:45.339Z,2.55
2022-08-23T12:50:40.826Z,2.28
2022-08-23T12:53:38.527Z,2.78
2022-08-23T12:56:36.396Z,2.53
2022-08-23T12:59:37.086Z,2.88
2022-08-23T13:02:35.267Z,2.80
2022-08-23T13:05:36.975Z,2.42
2022-08-23T13:08:35.529Z,2.80
2022-08-23T13:11:32.594Z,2.67
2022-08-23T13:14:31.135Z,2.75
2022-08-23T13:17:36.730Z,2.70
2022-08-23T13:20:29.412Z,2.70
2022-08-23T13:23:29.707Z,2.45
2022-08-23T13:26:36.870Z,2.40
2022-08-23T13:29:30.033Z,3.17
2022-08-23T13:32:30.615Z,2.80
2022-08-23T13:35:44.516Z,2.70
2022-08-23T13:38:38.737Z,2.67
2022-08-23T13:41:38.596Z,2.70
2022-08-23T13:44:33.731Z,2.95
2022-08-23T13:47:29.410Z,2.40
2022-08-23T13:50:25.707Z,2.90
2022-08-23T13:53:21.124Z,2.90
2022-08-23T13:56:15.388Z,2.75
2022-08-23T13:59:31.241Z,2.60
2022-08-23T14:02:25.276Z,2.28
2022-08-23T14:05:21.453Z,3.10
2022-08-23T14:08:14.479Z,2.88
2022-08-23T14:11:10.392Z,2.85
2022-08-23T14:14:03.925Z,2.65
2022-08-23T14:17:02.076Z,2.90
2022-08-23T14:20:32.774Z,2.65
2022-08-23T14:23:12.457Z,3.00
2022-08-23T14:26:05.865Z,2.72
2022-08-23T14:29:00.293Z,2.40
2022-08-23T14:31:54.291Z,2.55
2022-08-23T14:34:47.839Z,2.53
2022-08-23T14:40:57.634Z,2.55
2022-08-23T14:43:52.760Z,2.45
2022-08-23T14:46:47.716Z,2.83
2022-08-23T14:49:40.800Z,2.60
2022-08-23T14:52:34.032Z,2.60
2022-08-23T14:55:27.475Z,3.05
2022-08-23T14:58:21.075Z,2.80
2022-08-23T15:01:14.739Z,2.97
2022-08-23T15:04:09.208Z,2.95
2022-08-23T15:07:19.739Z,2.40
2022-08-23T15:10:49.898Z,2.53
2022-08-23T15:13:33.837Z,2.53
2022-08-23T15:16:28.834Z,2.35
2022-08-23T15:19:23.360Z,2.70
2022-08-23T15:22:21.312Z,2.70
2022-08-23T15:25:16.743Z,2.80
2022-08-23T15:28:13.466Z,2.42
2022-08-23T15:31:07.365Z,2.45
2022-08-23T15:34:01.770Z,2.60
2022-08-23T15:36:55.895Z,2.58
2022-08-23T15:39:49.258Z,2.78
2022-08-23T15:42:42.813Z,3.03
2022-08-23T15:45:36.476Z,2.72
2022-08-23T15:48:33.019Z,2.88
2022-08-23T15:51:27.075Z,2.63
2022-08-23T15:54:22.184Z,2.47
2022-08-23T15:57:16.981Z,2.53
2022-08-23T16:00:10.884Z,2.40
2022-08-23T16:03:18.437Z,2.78
2022-08-23T16:06:14.837Z,2.80
2022-08-23T16:09:12.959Z,2.65
2022-08-23T16:12:11.345Z,2.50
2022-08-23T16:15:06.062Z,2.42
2022-08-23T16:17:58.961Z,2.83
2022-08-23T16:20:54.335Z,2.67
2022-08-23T16:23:48.440Z,2.83
2022-08-23T16:26:45.521Z,3.40
2022-08-23T16:29:40.950Z,3.50
2022-08-23T16:32:33.973Z,3.00
2022-08-23T16:35:26.871Z,3.13
2022-08-23T16:38:20.340Z,3.42
2022-08-23T16:41:14.283Z,3.03
2022-08-23T16:44:08.505Z,3.00
2022-08-23T16:47:04.550Z,2.78
2022-08-23T16:49:57.887Z,3.22
2022-08-23T16:52:50.960Z,3.28
2022-08-23T16:55:44.424Z,3.30
2022-08-23T16:58:37.912Z,2.80
2022-08-23T17:01:32.954Z,2.85
2022-08-23T17:04:30.233Z,3.03
2022-08-23T17:07:23.563Z,2.92
2022-08-23T17:10:19.436Z,3.40
2022-08-23T17:13:14.949Z,2.95
2022-08-23T17:16:08.238Z,2.90
2022-08-23T17:19:02.615Z,2.92
2022-08-23T17:21:56.913Z,2.50
2022-08-23T17:24:53.360Z,3.20
2022-08-23T17:27:48.008Z,2.80
2022-08-23T17:30:41.559Z,2.60
2022-08-23T17:33:34.933Z,2.67
2022-08-23T17:36:32.690Z,2.83
2022-08-23T17:39:29.338Z,2.95
2022-08-23T17:42:23.434Z,2.83
2022-08-23T17:45:17.125Z,2.65
2022-08-23T17:48:11.992Z,3.03
2022-08-23T17:51:04.701Z,2.58
2022-08-23T17:53:58.161Z,2.70
2022-08-23T17:56:53.035Z,2.53
2022-08-23T17:59:45.679Z,2.85
2022-08-23T18:02:38.946Z,2.65
2022-08-23T18:05:34.108Z,2.65
2022-08-23T18:08:27.030Z,2.72
2022-08-23T18:11:19.811Z,2.70
2022-08-23T18:14:14.544Z,2.53
2022-08-23T18:17:07.948Z,2.50
2022-08-23T18:20:00.897Z,2.28
2022-08-23T18:22:56.472Z,2.10
2022-08-23T18:25:50.083Z,2.70
2022-08-23T18:28:42.145Z,2.83
2022-08-23T18:31:36.456Z,2.22
2022-08-23T18:34:30.502Z,2.70
2022-08-23T18:37:23.669Z,2.53
2022-08-23T18:40:17.243Z,2.78
2022-08-23T18:43:10.941Z,2.72
2022-08-23T18:46:04.011Z,2.45
2022-08-23T18:48:58.075Z,2.50
2022-08-23T18:51:50.889Z,2.50
2022-08-23T18:54:44.036Z,2.85
2022-08-23T18:57:36.973Z,2.40
2022-08-23T19:00:31.346Z,2.67
2022-08-23T19:03:24.945Z,3.38
2022-08-23T19:06:19.510Z,2.72
2022-08-23T19:09:13.100Z,2.83
2022-08-23T19:12:07.657Z,2.85
2022-08-23T19:15:00.794Z,2.85
2022-08-23T19:17:54.173Z,2.58
2022-08-23T19:20:46.993Z,3.00
2022-08-23T19:23:42.034Z,2.80
2022-08-23T19:26:36.249Z,2.78
2022-08-23T19:29:29.968Z,2.88
2022-08-23T19:32:23.625Z,2.97
2022-08-23T19:35:17.733Z,3.08
2022-08-23T19:38:11.301Z,2.83
2022-08-23T19:41:06.573Z,2.97
2022-08-23T19:44:00.342Z,2.70
2022-08-23T19:46:55.489Z,3.08
2022-08-23T19:49:49.445Z,2.80
2022-08-23T19:52:43.108Z,2.83
2022-08-23T19:55:39.546Z,2.83
2022-08-23T19:58:34.613Z,2.70
2022-08-23T20:01:27.931Z,2.63
2022-08-23T20:04:22.297Z,2.85
2022-08-23T20:07:15.640Z,2.53
2022-08-23T20:10:10.809Z,2.70
2022-08-23T20:13:04.505Z,2.38
2022-08-23T20:16:00.759Z,2.72
2022-08-23T20:18:54.360Z,2.75
2022-08-23T20:21:49.276Z,2.42
2022-08-23T20:24:51.611Z,2.70
2022-08-23T20:27:45.794Z,2.50
2022-08-23T20:30:39.161Z,2.75
2022-08-23T20:33:33.301Z,2.85
2022-08-23T20:36:28.088Z,2.80
2022-08-23T20:39:23.993Z,2.78
2022-08-23T20:42:18.278Z,2.55
2022-08-23T20:45:11.816Z,2.70
2022-08-23T20:48:08.477Z,2.90
2022-08-23T20:51:04.895Z,2.55
2022-08-23T20:53:58.204Z,3.00
2022-08-23T20:56:51.946Z,2.95
2022-08-23T20:59:45.263Z,3.13
2022-08-23T21:02:39.566Z,2.97
2022-08-23T21:05:33.550Z,3.47
2022-08-23T21:08:30.036Z,2.90
2022-08-23T21:11:26.024Z,2.67
2022-08-23T21:14:20.577Z,3.33
2022-08-23T21:17:14.004Z,2.78
2022-08-23T21:20:08.170Z,3.50
2022-08-23T21:23:01.427Z,2.75
2022-08-23T21:25:56.867Z,2.83
2022-08-23T21:28:50.535Z,2.63
2022-08-23T21:31:44.197Z,2.92
2022-08-23T21:34:38.235Z,2.92
2022-08-23T21:37:31.103Z,2.70
2022-08-23T21:40:27.444Z,2.65
2022-08-23T21:43:22.093Z,3.00
2022-08-23T21:46:15.004Z,3.10
2022-08-23T21:49:08.778Z,3.10
2022-08-23T21:52:06.004Z,2.80
2022-08-23T21:54:59.034Z,3.17
2022-08-23T21:57:51.896Z,3.05
2022-08-23T22:00:47.182Z,2.90
2022-08-23T22:03:40.369Z,2.92
2022-08-23T22:06:36.309Z,3.10
2022-08-23T22:09:31.480Z,2.60
2022-08-23T22:12:25.310Z,3.47
2022-08-23T22:15:19.326Z,3.13
2022-08-23T22:18:13.514Z,3.22
2022-08-23T22:21:08.189Z,2.83
2022-08-23T22:24:01.071Z,3.20
2022-08-23T22:26:54.623Z,3.03
2022-08-23T22:29:48.473Z,3.10
2022-08-23T22:32:42.319Z,3.28
2022-08-23T22:35:36.554Z,3.70
2022-08-23T22:38:30.640Z,3.03
2022-08-23T22:41:27.159Z,3.10
2022-08-23T22:44:21.352Z,3.17
2022-08-23T22:47:14.135Z,2.90
2022-08-23T22:50:08.173Z,3.05
2022-08-23T22:53:02.371Z,3.05
2022-08-23T22:55:54.918Z,3.10
2022-08-23T22:58:49.788Z,2.90
2022-08-23T23:01:49.483Z,3.00
2022-08-23T23:04:42.804Z,3.30
2022-08-23T23:07:53.296Z,3.08
2022-08-23T23:10:47.200Z,3.60
2022-08-23T23:13:41.079Z,3.03
2022-08-23T23:16:35.231Z,3.35
2022-08-23T23:19:45.952Z,3.45
2022-08-23T23:22:40.235Z,3.30
2022-08-23T23:25:34.608Z,3.08
2022-08-23T23:28:29.514Z,3.10
2022-08-23T23:31:23.779Z,3.60
2022-08-23T23:34:17.529Z,3.10
2022-08-23T23:37:12.202Z,3.00
2022-08-23T23:40:06.362Z,3.13
2022-08-23T23:42:58.906Z,2.83
2022-08-23T23:45:53.586Z,3.55
2022-08-23T23:48:49.617Z,3.28
2022-08-23T23:51:43.127Z,2.50
2022-08-23T23:54:38.634Z,3.05
2022-08-23T23:57:32.576Z,3.25
